sensor_id;sensor_type;location;lat;lon;timestamp;P1;durP1;ratioP1;P2;durP2;ratioP2
9467;SDS011;4772;52.382;9.752;2022-09-09T00:00:38;8.47;;;4.30;;
9467;SDS011;4772;52.382;9.752;2022-09-09T00:03:10;7.30;;;4.37;;
9467;SDS011;4772;52.382;9.752;2022-09-09T00:05:41;7.03;;;4.23;;
9467;SDS011;4772;52.382;9.752;2022-09-09T00:08:12;5.13;;;4.00;;
9467;SDS011;4772;52.382;9.752;2022-09-09T00:10:41;5.20;;;3.97;;
9467;SDS011;4772;52.382;9.752;2022-09-09T00:13:24;6.50;;;3.90;;
9467;SDS011;4772;52.382;9.752;2022-09-09T00:20:56;4.63;;;3.40;;
9467;SDS011;4772;52.382;9.752;2022-09-09T00:23:25;6.07;;;3.40;;
9467;SDS011;4772;52.382;9.752;2022-09-09T00:28:18;3.73;;;2.80;;
9467;SDS011;4772;52.382;9.752;2022-09-09T00:30:45;4.30;;;2.80;;
9467;SDS011;4772;52.382;9.752;2022-09-09T00:33:17;4.23;;;3.00;;
9467;SDS011;4772;52.382;9.752;2022-09-09T00:35:48;6.03;;;3.00;;
9467;SDS011;4772;52.382;9.752;2022-09-09T00:38:24;5.87;;;3.23;;
9467;SDS011;4772;52.382;9.752;2022-09-09T00:48:19;6.67;;;2.70;;
9467;SDS011;4772;52.382;9.752;2022-09-09T00:50:50;3.87;;;2.70;;
9467;SDS011;4772;52.382;9.752;2022-09-09T00:56:16;4.87;;;2.70;;
9467;SDS011;4772;52.382;9.752;2022-09-09T00:59:08;5.47;;;3.03;;
9467;SDS011;4772;52.382;9.752;2022-09-09T01:01:38;3.30;;;2.50;;
9467;SDS011;4772;52.382;9.752;2022-09-09T01:04:09;4.17;;;2.63;;
9467;SDS011;4772;52.382;9.752;2022-09-09T01:06:41;2.77;;;1.83;;
9467;SDS011;4772;52.382;9.752;2022-09-09T01:09:27;2.00;;;1.90;;
9467;SDS011;4772;52.382;9.752;2022-09-09T01:12:09;3.70;;;2.20;;
9467;SDS011;4772;52.382;9.752;2022-09-09T01:24:50;4.00;;;2.50;;
9467;SDS011;4772;52.382;9.752;2022-09-09T01:27:20;4.00;;;2.63;;
9467;SDS011;4772;52.382;9.752;2022-09-09T01:29:47;3.53;;;2.60;;
9467;SDS011;4772;52.382;9.752;2022-09-09T01:34:58;3.70;;;2.80;;
9467;SDS011;4772;52.382;9.752;2022-09-09T01:37:24;3.90;;;2.40;;
9467;SDS011;4772;52.382;9.752;2022-09-09T01:39:50;5.13;;;2.20;;
9467;SDS011;4772;52.382;9.752;2022-09-09T01:42:16;3.60;;;2.23;;
9467;SDS011;4772;52.382;9.752;2022-09-09T01:44:43;4.93;;;2.27;;
9467;SDS011;4772;52.382;9.752;2022-09-09T01:47:09;2.20;;;1.60;;
9467;SDS011;4772;52.382;9.752;2022-09-09T01:49:36;3.13;;;1.53;;
9467;SDS011;4772;52.382;9.752;2022-09-09T01:52:02;2.00;;;1.40;;
9467;SDS011;4772;52.382;9.752;2022-09-09T01:54:30;2.30;;;1.60;;
9467;SDS011;4772;52.382;9.752;2022-09-09T01:57:03;1.47;;;1.17;;
9467;SDS011;4772;52.382;9.752;2022-09-09T02:02:23;2.77;;;1.60;;
9467;SDS011;4772;52.382;9.752;2022-09-09T02:04:57;3.10;;;1.40;;
9467;SDS011;4772;52.382;9.752;2022-09-09T02:07:42;2.70;;;1.37;;
9467;SDS011;4772;52.382;9.752;2022-09-09T02:10:13;3.57;;;1.57;;
9467;SDS011;4772;52.382;9.752;2022-09-09T02:12:43;3.57;;;1.30;;
9467;SDS011;4772;52.382;9.752;2022-09-09T02:15:15;3.17;;;1.57;;
9467;SDS011;4772;52.382;9.752;2022-09-09T02:17:43;3.23;;;1.43;;
9467;SDS011;4772;52.382;9.752;2022-09-09T02:20:12;2.23;;;1.40;;
9467;SDS011;4772;52.382;9.752;2022-09-09T02:22:39;3.93;;;1.50;;
9467;SDS011;4772;52.382;9.752;2022-09-09T02:25:06;3.33;;;1.50;;
9467;SDS011;4772;52.382;9.752;2022-09-09T02:27:33;2.10;;;1.50;;
9467;SDS011;4772;52.382;9.752;2022-09-09T02:30:00;3.00;;;1.60;;
9467;SDS011;4772;52.382;9.752;2022-09-09T02:32:27;2.43;;;1.60;;
9467;SDS011;4772;52.382;9.752;2022-09-09T02:34:56;2.67;;;1.40;;
9467;SDS011;4772;52.382;9.752;2022-09-09T02:37:24;2.37;;;1.50;;
9467;SDS011;4772;52.382;9.752;2022-09-09T02:39:53;1.80;;;1.40;;
9467;SDS011;4772;52.382;9.752;2022-09-09T02:42:20;3.37;;;1.53;;
9467;SDS011;4772;52.382;9.752;2022-09-09T02:44:48;2.57;;;1.50;;
9467;SDS011;4772;52.382;9.752;2022-09-09T02:52:15;2.67;;;1.50;;
9467;SDS011;4772;52.382;9.752;2022-09-09T02:54:41;4.40;;;1.60;;
9467;SDS011;4772;52.382;9.752;2022-09-09T02:57:16;3.73;;;1.60;;
9467;SDS011;4772;52.382;9.752;2022-09-09T02:59:43;3.27;;;1.50;;
9467;SDS011;4772;52.382;9.752;2022-09-09T03:02:10;4.07;;;1.50;;
9467;SDS011;4772;52.382;9.752;2022-09-09T03:04:36;3.23;;;1.50;;
9467;SDS011;4772;52.382;9.752;2022-09-09T03:07:02;3.57;;;1.33;;
9467;SDS011;4772;52.382;9.752;2022-09-09T03:09:28;3.07;;;1.30;;
9467;SDS011;4772;52.382;9.752;2022-09-09T03:11:54;1.87;;;1.57;;
9467;SDS011;4772;52.382;9.752;2022-09-09T03:14:21;3.30;;;1.57;;
9467;SDS011;4772;52.382;9.752;2022-09-09T03:16:49;2.90;;;1.50;;
9467;SDS011;4772;52.382;9.752;2022-09-09T03:19:16;6.33;;;1.60;;
9467;SDS011;4772;52.382;9.752;2022-09-09T03:21:43;3.17;;;1.67;;
9467;SDS011;4772;52.382;9.752;2022-09-09T03:24:09;2.60;;;1.47;;
9467;SDS011;4772;52.382;9.752;2022-09-09T03:26:36;2.97;;;1.50;;
9467;SDS011;4772;52.382;9.752;2022-09-09T03:29:03;6.87;;;2.03;;
9467;SDS011;4772;52.382;9.752;2022-09-09T03:31:31;5.43;;;1.60;;
9467;SDS011;4772;52.382;9.752;2022-09-09T03:33:57;5.57;;;1.77;;
9467;SDS011;4772;52.382;9.752;2022-09-09T03:36:23;2.27;;;1.40;;
9467;SDS011;4772;52.382;9.752;2022-09-09T03:38:51;4.70;;;1.60;;
9467;SDS011;4772;52.382;9.752;2022-09-09T03:41:17;3.13;;;1.70;;
9467;SDS011;4772;52.382;9.752;2022-09-09T03:43:43;3.73;;;1.70;;
9467;SDS011;4772;52.382;9.752;2022-09-09T03:46:09;3.97;;;1.70;;
9467;SDS011;4772;52.382;9.752;2022-09-09T03:48:35;3.63;;;1.80;;
9467;SDS011;4772;52.382;9.752;2022-09-09T03:51:01;4.17;;;1.90;;
9467;SDS011;4772;52.382;9.752;2022-09-09T03:53:28;3.93;;;1.70;;
9467;SDS011;4772;52.382;9.752;2022-09-09T03:55:55;4.97;;;1.60;;
9467;SDS011;4772;52.382;9.752;2022-09-09T03:58:22;4.63;;;1.73;;
9467;SDS011;4772;52.382;9.752;2022-09-09T04:01:02;2.20;;;1.60;;
9467;SDS011;4772;52.382;9.752;2022-09-09T04:03:29;3.83;;;1.80;;
9467;SDS011;4772;52.382;9.752;2022-09-09T04:05:56;2.97;;;1.33;;
9467;SDS011;4772;52.382;9.752;2022-09-09T04:08:22;2.93;;;1.80;;
9467;SDS011;4772;52.382;9.752;2022-09-09T04:10:52;3.47;;;1.60;;
9467;SDS011;4772;52.382;9.752;2022-09-09T04:13:18;4.10;;;1.70;;
9467;SDS011;4772;52.382;9.752;2022-09-09T04:15:51;3.00;;;1.60;;
9467;SDS011;4772;52.382;9.752;2022-09-09T04:18:18;5.17;;;1.97;;
9467;SDS011;4772;52.382;9.752;2022-09-09T04:20:45;4.97;;;1.80;;
9467;SDS011;4772;52.382;9.752;2022-09-09T04:23:12;3.83;;;1.97;;
9467;SDS011;4772;52.382;9.752;2022-09-09T04:25:42;3.13;;;1.70;;
9467;SDS011;4772;52.382;9.752;2022-09-09T04:28:09;3.13;;;1.80;;
9467;SDS011;4772;52.382;9.752;2022-09-09T04:30:35;2.87;;;1.57;;
9467;SDS011;4772;52.382;9.752;2022-09-09T04:33:01;3.20;;;1.60;;
9467;SDS011;4772;52.382;9.752;2022-09-09T04:35:27;4.90;;;1.90;;
9467;SDS011;4772;52.382;9.752;2022-09-09T04:37:53;4.03;;;2.00;;
9467;SDS011;4772;52.382;9.752;2022-09-09T04:40:19;4.17;;;2.20;;
9467;SDS011;4772;52.382;9.752;2022-09-09T04:42:47;6.20;;;1.90;;
9467;SDS011;4772;52.382;9.752;2022-09-09T04:45:14;4.13;;;2.03;;
9467;SDS011;4772;52.382;9.752;2022-09-09T04:47:40;4.33;;;1.90;;
9467;SDS011;4772;52.382;9.752;2022-09-09T04:50:07;5.53;;;1.90;;
9467;SDS011;4772;52.382;9.752;2022-09-09T04:52:34;3.47;;;1.50;;
9467;SDS011;4772;52.382;9.752;2022-09-09T04:55:00;4.13;;;1.70;;
9467;SDS011;4772;52.382;9.752;2022-09-09T04:57:26;6.13;;;1.90;;
9467;SDS011;4772;52.382;9.752;2022-09-09T04:59:53;4.27;;;1.90;;
9467;SDS011;4772;52.382;9.752;2022-09-09T05:02:19;2.97;;;1.93;;
9467;SDS011;4772;52.382;9.752;2022-09-09T05:04:45;9.27;;;2.00;;
9467;SDS011;4772;52.382;9.752;2022-09-09T05:07:11;3.43;;;1.80;;
9467;SDS011;4772;52.382;9.752;2022-09-09T05:09:38;7.23;;;2.10;;
9467;SDS011;4772;52.382;9.752;2022-09-09T05:12:05;3.33;;;1.80;;
9467;SDS011;4772;52.382;9.752;2022-09-09T05:14:31;3.13;;;1.70;;
9467;SDS011;4772;52.382;9.752;2022-09-09T05:16:57;4.03;;;1.90;;
9467;SDS011;4772;52.382;9.752;2022-09-09T05:19:23;2.43;;;1.63;;
9467;SDS011;4772;52.382;9.752;2022-09-09T05:21:49;3.53;;;2.17;;
9467;SDS011;4772;52.382;9.752;2022-09-09T05:24:15;3.70;;;1.90;;
9467;SDS011;4772;52.382;9.752;2022-09-09T05:26:42;4.73;;;2.13;;
9467;SDS011;4772;52.382;9.752;2022-09-09T05:29:09;5.20;;;2.03;;
9467;SDS011;4772;52.382;9.752;2022-09-09T05:31:35;3.57;;;1.90;;
9467;SDS011;4772;52.382;9.752;2022-09-09T05:34:01;1.87;;;1.53;;
9467;SDS011;4772;52.382;9.752;2022-09-09T05:36:27;3.80;;;1.67;;
9467;SDS011;4772;52.382;9.752;2022-09-09T05:38:53;4.27;;;1.70;;
9467;SDS011;4772;52.382;9.752;2022-09-09T05:41:20;2.97;;;1.70;;
9467;SDS011;4772;52.382;9.752;2022-09-09T05:43:48;5.80;;;1.90;;
9467;SDS011;4772;52.382;9.752;2022-09-09T05:46:20;4.20;;;2.10;;
9467;SDS011;4772;52.382;9.752;2022-09-09T05:48:46;2.90;;;1.90;;
9467;SDS011;4772;52.382;9.752;2022-09-09T05:51:14;6.07;;;2.20;;
9467;SDS011;4772;52.382;9.752;2022-09-09T05:53:41;4.00;;;1.80;;
9467;SDS011;4772;52.382;9.752;2022-09-09T05:56:08;3.30;;;1.70;;
9467;SDS011;4772;52.382;9.752;2022-09-09T05:58:44;3.17;;;2.00;;
9467;SDS011;4772;52.382;9.752;2022-09-09T06:01:19;4.23;;;2.03;;
9467;SDS011;4772;52.382;9.752;2022-09-09T06:03:45;4.97;;;1.90;;
9467;SDS011;4772;52.382;9.752;2022-09-09T06:06:16;6.60;;;1.97;;
9467;SDS011;4772;52.382;9.752;2022-09-09T06:08:43;5.80;;;2.30;;
9467;SDS011;4772;52.382;9.752;2022-09-09T06:11:11;3.27;;;2.00;;
9467;SDS011;4772;52.382;9.752;2022-09-09T06:13:37;5.50;;;2.10;;
9467;SDS011;4772;52.382;9.752;2022-09-09T06:16:04;2.23;;;1.90;;
9467;SDS011;4772;52.382;9.752;2022-09-09T06:18:32;2.80;;;1.90;;
9467;SDS011;4772;52.382;9.752;2022-09-09T06:20:59;3.83;;;2.10;;
9467;SDS011;4772;52.382;9.752;2022-09-09T06:23:26;5.23;;;2.07;;
9467;SDS011;4772;52.382;9.752;2022-09-09T06:26:00;3.40;;;1.80;;
9467;SDS011;4772;52.382;9.752;2022-09-09T06:28:26;3.60;;;2.00;;
9467;SDS011;4772;52.382;9.752;2022-09-09T06:30:58;4.83;;;2.20;;
9467;SDS011;4772;52.382;9.752;2022-09-09T06:33:24;5.03;;;2.03;;
9467;SDS011;4772;52.382;9.752;2022-09-09T06:35:53;5.03;;;2.00;;
9467;SDS011;4772;52.382;9.752;2022-09-09T06:38:22;6.83;;;1.90;;
9467;SDS011;4772;52.382;9.752;2022-09-09T06:40:52;4.20;;;1.87;;
9467;SDS011;4772;52.382;9.752;2022-09-09T06:43:19;5.07;;;2.33;;
9467;SDS011;4772;52.382;9.752;2022-09-09T06:45:52;4.17;;;2.00;;
9467;SDS011;4772;52.382;9.752;2022-09-09T06:48:18;4.80;;;2.20;;
9467;SDS011;4772;52.382;9.752;2022-09-09T06:50:44;3.47;;;1.87;;
9467;SDS011;4772;52.382;9.752;2022-09-09T06:53:11;5.70;;;2.47;;
9467;SDS011;4772;52.382;9.752;2022-09-09T06:55:37;2.60;;;2.10;;
9467;SDS011;4772;52.382;9.752;2022-09-09T06:58:08;5.90;;;2.10;;
9467;SDS011;4772;52.382;9.752;2022-09-09T07:00:34;3.93;;;2.03;;
9467;SDS011;4772;52.382;9.752;2022-09-09T07:03:02;4.87;;;2.03;;
9467;SDS011;4772;52.382;9.752;2022-09-09T07:05:28;5.10;;;2.10;;
9467;SDS011;4772;52.382;9.752;2022-09-09T07:07:54;2.97;;;2.10;;
9467;SDS011;4772;52.382;9.752;2022-09-09T07:10:20;6.13;;;2.30;;
9467;SDS011;4772;52.382;9.752;2022-09-09T07:12:50;3.60;;;2.00;;
9467;SDS011;4772;52.382;9.752;2022-09-09T07:15:17;3.33;;;1.70;;
9467;SDS011;4772;52.382;9.752;2022-09-09T07:17:43;4.00;;;1.77;;
9467;SDS011;4772;52.382;9.752;2022-09-09T07:20:10;3.00;;;1.80;;
9467;SDS011;4772;52.382;9.752;2022-09-09T07:22:36;3.37;;;1.87;;
9467;SDS011;4772;52.382;9.752;2022-09-09T07:25:02;5.27;;;1.80;;
9467;SDS011;4772;52.382;9.752;2022-09-09T07:27:29;3.00;;;1.60;;
9467;SDS011;4772;52.382;9.752;2022-09-09T07:29:56;4.20;;;1.50;;
9467;SDS011;4772;52.382;9.752;2022-09-09T07:32:22;3.70;;;1.58;;
9467;SDS011;4772;52.382;9.752;2022-09-09T07:34:48;4.07;;;1.73;;
9467;SDS011;4772;52.382;9.752;2022-09-09T07:37:15;3.42;;;1.60;;
9467;SDS011;4772;52.382;9.752;2022-09-09T07:39:42;3.40;;;1.50;;
9467;SDS011;4772;52.382;9.752;2022-09-09T07:42:08;4.85;;;1.88;;
9467;SDS011;4772;52.382;9.752;2022-09-09T07:44:36;4.65;;;1.50;;
9467;SDS011;4772;52.382;9.752;2022-09-09T07:47:04;4.97;;;1.55;;
9467;SDS011;4772;52.382;9.752;2022-09-09T07:49:30;3.00;;;1.55;;
9467;SDS011;4772;52.382;9.752;2022-09-09T07:51:57;3.17;;;1.90;;
9467;SDS011;4772;52.382;9.752;2022-09-09T07:54:23;2.78;;;1.73;;
9467;SDS011;4772;52.382;9.752;2022-09-09T07:56:51;1.92;;;1.40;;
9467;SDS011;4772;52.382;9.752;2022-09-09T07:59:17;3.00;;;1.30;;
9467;SDS011;4772;52.382;9.752;2022-09-09T08:01:48;5.70;;;1.60;;
9467;SDS011;4772;52.382;9.752;2022-09-09T08:04:18;3.60;;;1.85;;
9467;SDS011;4772;52.382;9.752;2022-09-09T08:06:47;1.53;;;1.37;;
9467;SDS011;4772;52.382;9.752;2022-09-09T08:09:14;3.63;;;1.67;;
9467;SDS011;4772;52.382;9.752;2022-09-09T08:11:40;4.22;;;1.50;;
9467;SDS011;4772;52.382;9.752;2022-09-09T08:14:07;3.63;;;1.52;;
9467;SDS011;4772;52.382;9.752;2022-09-09T08:16:34;4.70;;;1.70;;
9467;SDS011;4772;52.382;9.752;2022-09-09T08:19:01;3.15;;;1.50;;
9467;SDS011;4772;52.382;9.752;2022-09-09T08:21:28;3.38;;;1.50;;
9467;SDS011;4772;52.382;9.752;2022-09-09T08:23:55;4.53;;;1.83;;
9467;SDS011;4772;52.382;9.752;2022-09-09T08:26:23;2.95;;;1.50;;
9467;SDS011;4772;52.382;9.752;2022-09-09T08:28:52;3.00;;;1.38;;
9467;SDS011;4772;52.382;9.752;2022-09-09T08:34:13;4.53;;;1.73;;
9467;SDS011;4772;52.382;9.752;2022-09-09T08:36:43;4.15;;;1.52;;
9467;SDS011;4772;52.382;9.752;2022-09-09T08:39:10;4.45;;;1.60;;
9467;SDS011;4772;52.382;9.752;2022-09-09T08:46:42;7.87;;;2.00;;
9467;SDS011;4772;52.382;9.752;2022-09-09T08:51:44;4.23;;;1.70;;
9467;SDS011;4772;52.382;9.752;2022-09-09T08:54:11;4.33;;;2.03;;
9467;SDS011;4772;52.382;9.752;2022-09-09T08:56:37;3.80;;;1.70;;
9467;SDS011;4772;52.382;9.752;2022-09-09T08:59:03;3.93;;;1.50;;
9467;SDS011;4772;52.382;9.752;2022-09-09T09:11:47;3.13;;;1.50;;
9467;SDS011;4772;52.382;9.752;2022-09-09T09:16:48;4.73;;;1.40;;
9467;SDS011;4772;52.382;9.752;2022-09-09T09:19:15;4.80;;;1.60;;
9467;SDS011;4772;52.382;9.752;2022-09-09T09:21:44;4.07;;;1.43;;
9467;SDS011;4772;52.382;9.752;2022-09-09T09:24:20;4.53;;;1.60;;
9467;SDS011;4772;52.382;9.752;2022-09-09T09:26:46;2.37;;;1.43;;
9467;SDS011;4772;52.382;9.752;2022-09-09T09:29:13;4.60;;;1.70;;
9467;SDS011;4772;52.382;9.752;2022-09-09T09:31:42;2.87;;;1.43;;
9467;SDS011;4772;52.382;9.752;2022-09-09T09:34:09;5.37;;;1.90;;
9467;SDS011;4772;52.382;9.752;2022-09-09T09:36:41;6.67;;;1.90;;
9467;SDS011;4772;52.382;9.752;2022-09-09T09:39:09;3.60;;;1.60;;
9467;SDS011;4772;52.382;9.752;2022-09-09T09:41:36;3.73;;;1.80;;
9467;SDS011;4772;52.382;9.752;2022-09-09T09:44:04;5.40;;;1.67;;
9467;SDS011;4772;52.382;9.752;2022-09-09T09:46:30;2.88;;;1.45;;
9467;SDS011;4772;52.382;9.752;2022-09-09T09:49:01;4.75;;;1.50;;
9467;SDS011;4772;52.382;9.752;2022-09-09T09:51:28;3.60;;;1.77;;
9467;SDS011;4772;52.382;9.752;2022-09-09T09:54:02;3.70;;;1.50;;
9467;SDS011;4772;52.382;9.752;2022-09-09T09:56:30;3.28;;;1.50;;
9467;SDS011;4772;52.382;9.752;2022-09-09T09:58:57;2.88;;;1.50;;
9467;SDS011;4772;52.382;9.752;2022-09-09T10:01:25;3.17;;;1.40;;
9467;SDS011;4772;52.382;9.752;2022-09-09T10:03:54;4.20;;;1.42;;
9467;SDS011;4772;52.382;9.752;2022-09-09T10:06:30;6.70;;;1.80;;
9467;SDS011;4772;52.382;9.752;2022-09-09T10:08:56;5.55;;;1.50;;
9467;SDS011;4772;52.382;9.752;2022-09-09T10:19:15;3.38;;;1.60;;
9467;SDS011;4772;52.382;9.752;2022-09-09T10:35:34;5.63;;;1.90;;
9467;SDS011;4772;52.382;9.752;2022-09-09T10:42:43;4.90;;;2.23;;
9467;SDS011;4772;52.382;9.752;2022-09-09T10:45:18;3.73;;;1.90;;
9467;SDS011;4772;52.382;9.752;2022-09-09T10:47:52;5.80;;;2.33;;
9467;SDS011;4772;52.382;9.752;2022-09-09T10:53:02;5.63;;;2.00;;
9467;SDS011;4772;52.382;9.752;2022-09-09T10:55:37;3.90;;;1.90;;
9467;SDS011;4772;52.382;9.752;2022-09-09T10:58:05;3.20;;;1.67;;
9467;SDS011;4772;52.382;9.752;2022-09-09T11:00:39;6.50;;;2.23;;
9467;SDS011;4772;52.382;9.752;2022-09-09T11:03:09;5.97;;;1.90;;
9467;SDS011;4772;52.382;9.752;2022-09-09T11:05:42;3.83;;;1.73;;
9467;SDS011;4772;52.382;9.752;2022-09-09T11:08:10;4.23;;;1.87;;
9467;SDS011;4772;52.382;9.752;2022-09-09T11:10:42;3.67;;;1.70;;
9467;SDS011;4772;52.382;9.752;2022-09-09T11:15:59;5.70;;;1.60;;
9467;SDS011;4772;52.382;9.752;2022-09-09T11:18:26;5.93;;;1.90;;
9467;SDS011;4772;52.382;9.752;2022-09-09T11:20:56;5.50;;;1.73;;
9467;SDS011;4772;52.382;9.752;2022-09-09T11:23:32;4.43;;;1.80;;
9467;SDS011;4772;52.382;9.752;2022-09-09T11:26:03;5.23;;;1.90;;
9467;SDS011;4772;52.382;9.752;2022-09-09T11:28:51;2.63;;;1.87;;
9467;SDS011;4772;52.382;9.752;2022-09-09T11:34:11;4.93;;;1.80;;
9467;SDS011;4772;52.382;9.752;2022-09-09T11:36:48;4.10;;;1.83;;
9467;SDS011;4772;52.382;9.752;2022-09-09T11:41:43;3.53;;;1.33;;
9467;SDS011;4772;52.382;9.752;2022-09-09T11:44:10;4.10;;;1.40;;
9467;SDS011;4772;52.382;9.752;2022-09-09T11:46:37;4.73;;;1.60;;
9467;SDS011;4772;52.382;9.752;2022-09-09T11:49:04;5.10;;;1.90;;
9467;SDS011;4772;52.382;9.752;2022-09-09T11:51:32;3.27;;;1.60;;
9467;SDS011;4772;52.382;9.752;2022-09-09T11:59:28;4.03;;;1.60;;
9467;SDS011;4772;52.382;9.752;2022-09-09T12:01:55;5.20;;;1.40;;
9467;SDS011;4772;52.382;9.752;2022-09-09T12:06:53;4.30;;;1.70;;
9467;SDS011;4772;52.382;9.752;2022-09-09T12:12:05;4.30;;;1.17;;
9467;SDS011;4772;52.382;9.752;2022-09-09T12:19:41;2.20;;;1.23;;
9467;SDS011;4772;52.382;9.752;2022-09-09T12:27:34;3.67;;;1.67;;
9467;SDS011;4772;52.382;9.752;2022-09-09T12:30:09;2.60;;;1.23;;
9467;SDS011;4772;52.382;9.752;2022-09-09T12:32:37;4.33;;;1.37;;
9467;SDS011;4772;52.382;9.752;2022-09-09T12:35:26;2.10;;;1.70;;
9467;SDS011;4772;52.382;9.752;2022-09-09T12:37:53;3.00;;;1.53;;
9467;SDS011;4772;52.382;9.752;2022-09-09T12:42:47;2.43;;;1.30;;
9467;SDS011;4772;52.382;9.752;2022-09-09T12:45:20;1.90;;;1.33;;
9467;SDS011;4772;52.382;9.752;2022-09-09T12:50:17;2.40;;;1.30;;
9467;SDS011;4772;52.382;9.752;2022-09-09T12:52:44;2.20;;;1.02;;
9467;SDS011;4772;52.382;9.752;2022-09-09T12:55:15;3.17;;;0.98;;
9467;SDS011;4772;52.382;9.752;2022-09-09T12:57:42;2.45;;;1.02;;
9467;SDS011;4772;52.382;9.752;2022-09-09T13:00:14;2.05;;;1.20;;
9467;SDS011;4772;52.382;9.752;2022-09-09T13:02:51;2.40;;;1.40;;
9467;SDS011;4772;52.382;9.752;2022-09-09T13:05:19;5.27;;;1.30;;
9467;SDS011;4772;52.382;9.752;2022-09-09T13:07:46;2.60;;;1.40;;
9467;SDS011;4772;52.382;9.752;2022-09-09T13:10:13;2.30;;;1.43;;
9467;SDS011;4772;52.382;9.752;2022-09-09T13:12:39;3.07;;;1.30;;
9467;SDS011;4772;52.382;9.752;2022-09-09T13:15:10;2.87;;;1.50;;
9467;SDS011;4772;52.382;9.752;2022-09-09T13:17:39;3.30;;;1.40;;
9467;SDS011;4772;52.382;9.752;2022-09-09T13:20:06;3.37;;;1.40;;
9467;SDS011;4772;52.382;9.752;2022-09-09T13:22:37;2.13;;;1.13;;
9467;SDS011;4772;52.382;9.752;2022-09-09T13:27:35;2.67;;;1.20;;
9467;SDS011;4772;52.382;9.752;2022-09-09T13:30:19;3.13;;;1.23;;
9467;SDS011;4772;52.382;9.752;2022-09-09T13:32:47;2.50;;;1.20;;
9467;SDS011;4772;52.382;9.752;2022-09-09T13:35:23;4.60;;;1.37;;
9467;SDS011;4772;52.382;9.752;2022-09-09T13:37:50;3.37;;;1.30;;
9467;SDS011;4772;52.382;9.752;2022-09-09T13:40:20;3.20;;;1.57;;
9467;SDS011;4772;52.382;9.752;2022-09-09T13:42:46;2.50;;;1.20;;
9467;SDS011;4772;52.382;9.752;2022-09-09T13:45:17;2.87;;;1.23;;
9467;SDS011;4772;52.382;9.752;2022-09-09T13:47:47;4.30;;;1.40;;
9467;SDS011;4772;52.382;9.752;2022-09-09T13:50:29;3.17;;;1.40;;
9467;SDS011;4772;52.382;9.752;2022-09-09T13:52:56;3.03;;;1.30;;
9467;SDS011;4772;52.382;9.752;2022-09-09T13:55:28;1.93;;;1.30;;
9467;SDS011;4772;52.382;9.752;2022-09-09T14:00:21;2.13;;;1.23;;
9467;SDS011;4772;52.382;9.752;2022-09-09T14:02:48;1.37;;;1.00;;
9467;SDS011;4772;52.382;9.752;2022-09-09T14:05:14;4.03;;;1.80;;
9467;SDS011;4772;52.382;9.752;2022-09-09T14:07:41;7.97;;;3.37;;
9467;SDS011;4772;52.382;9.752;2022-09-09T14:10:07;4.47;;;1.90;;
9467;SDS011;4772;52.382;9.752;2022-09-09T14:12:33;4.87;;;1.50;;
9467;SDS011;4772;52.382;9.752;2022-09-09T14:15:01;2.80;;;1.50;;
9467;SDS011;4772;52.382;9.752;2022-09-09T14:17:27;3.13;;;1.40;;
9467;SDS011;4772;52.382;9.752;2022-09-09T14:19:56;3.73;;;1.80;;
9467;SDS011;4772;52.382;9.752;2022-09-09T14:22:22;2.83;;;1.23;;
9467;SDS011;4772;52.382;9.752;2022-09-09T14:24:48;3.80;;;1.40;;
9467;SDS011;4772;52.382;9.752;2022-09-09T14:27:16;5.23;;;1.40;;
9467;SDS011;4772;52.382;9.752;2022-09-09T14:29:42;2.63;;;1.20;;
9467;SDS011;4772;52.382;9.752;2022-09-09T14:32:09;4.17;;;1.47;;
9467;SDS011;4772;52.382;9.752;2022-09-09T14:34:35;3.47;;;1.50;;
9467;SDS011;4772;52.382;9.752;2022-09-09T14:37:01;5.40;;;1.53;;
9467;SDS011;4772;52.382;9.752;2022-09-09T14:39:27;2.23;;;1.30;;
9467;SDS011;4772;52.382;9.752;2022-09-09T14:41:53;4.70;;;1.53;;
9467;SDS011;4772;52.382;9.752;2022-09-09T14:44:19;4.13;;;1.50;;
9467;SDS011;4772;52.382;9.752;2022-09-09T14:46:45;3.60;;;1.30;;
9467;SDS011;4772;52.382;9.752;2022-09-09T14:49:11;3.35;;;1.52;;
9467;SDS011;4772;52.382;9.752;2022-09-09T14:51:37;1.63;;;1.10;;
9467;SDS011;4772;52.382;9.752;2022-09-09T14:54:03;2.20;;;1.27;;
9467;SDS011;4772;52.382;9.752;2022-09-09T14:56:31;3.55;;;1.40;;
9467;SDS011;4772;52.382;9.752;2022-09-09T14:58:59;3.83;;;1.70;;
9467;SDS011;4772;52.382;9.752;2022-09-09T15:01:29;2.80;;;1.38;;
9467;SDS011;4772;52.382;9.752;2022-09-09T15:03:57;3.35;;;1.20;;
9467;SDS011;4772;52.382;9.752;2022-09-09T15:06:24;3.95;;;1.38;;
9467;SDS011;4772;52.382;9.752;2022-09-09T15:08:51;2.28;;;1.13;;
9467;SDS011;4772;52.382;9.752;2022-09-09T15:11:17;2.30;;;1.30;;
9467;SDS011;4772;52.382;9.752;2022-09-09T15:13:43;2.47;;;1.25;;
9467;SDS011;4772;52.382;9.752;2022-09-09T15:16:11;2.60;;;1.30;;
9467;SDS011;4772;52.382;9.752;2022-09-09T15:18:37;2.72;;;1.33;;
9467;SDS011;4772;52.382;9.752;2022-09-09T15:21:07;3.55;;;1.58;;
9467;SDS011;4772;52.382;9.752;2022-09-09T15:23:34;3.92;;;1.40;;
9467;SDS011;4772;52.382;9.752;2022-09-09T15:26:00;2.45;;;1.48;;
9467;SDS011;4772;52.382;9.752;2022-09-09T15:28:26;3.47;;;1.38;;
9467;SDS011;4772;52.382;9.752;2022-09-09T15:30:52;2.05;;;1.42;;
9467;SDS011;4772;52.382;9.752;2022-09-09T15:33:19;2.73;;;1.37;;
9467;SDS011;4772;52.382;9.752;2022-09-09T15:35:45;3.13;;;1.20;;
9467;SDS011;4772;52.382;9.752;2022-09-09T15:38:11;2.53;;;1.33;;
9467;SDS011;4772;52.382;9.752;2022-09-09T15:40:41;3.40;;;1.40;;
9467;SDS011;4772;52.382;9.752;2022-09-09T15:43:07;3.23;;;1.33;;
9467;SDS011;4772;52.382;9.752;2022-09-09T15:45:34;4.37;;;1.57;;
9467;SDS011;4772;52.382;9.752;2022-09-09T15:48:00;3.80;;;1.57;;
9467;SDS011;4772;52.382;9.752;2022-09-09T15:50:26;4.10;;;1.50;;
9467;SDS011;4772;52.382;9.752;2022-09-09T15:52:53;2.70;;;1.40;;
9467;SDS011;4772;52.382;9.752;2022-09-09T15:55:19;3.87;;;1.40;;
9467;SDS011;4772;52.382;9.752;2022-09-09T15:57:46;4.23;;;1.63;;
9467;SDS011;4772;52.382;9.752;2022-09-09T16:00:12;2.57;;;1.40;;
9467;SDS011;4772;52.382;9.752;2022-09-09T16:02:39;2.50;;;1.40;;
9467;SDS011;4772;52.382;9.752;2022-09-09T16:05:05;4.77;;;1.40;;
9467;SDS011;4772;52.382;9.752;2022-09-09T16:07:31;7.80;;;3.20;;
9467;SDS011;4772;52.382;9.752;2022-09-09T16:09:59;5.17;;;3.67;;
9467;SDS011;4772;52.382;9.752;2022-09-09T16:12:25;5.60;;;3.37;;
9467;SDS011;4772;52.382;9.752;2022-09-09T16:14:51;5.83;;;4.10;;
9467;SDS011;4772;52.382;9.752;2022-09-09T16:17:17;5.47;;;3.70;;
9467;SDS011;4772;52.382;9.752;2022-09-09T16:19:45;6.00;;;4.10;;
9467;SDS011;4772;52.382;9.752;2022-09-09T16:22:11;5.10;;;3.30;;
9467;SDS011;4772;52.382;9.752;2022-09-09T16:24:40;5.47;;;2.70;;
9467;SDS011;4772;52.382;9.752;2022-09-09T16:27:06;2.63;;;2.37;;
9467;SDS011;4772;52.382;9.752;2022-09-09T16:29:32;9.70;;;7.20;;
9467;SDS011;4772;52.382;9.752;2022-09-09T16:31:58;4.83;;;1.80;;
9467;SDS011;4772;52.382;9.752;2022-09-09T16:34:25;3.93;;;1.83;;
9467;SDS011;4772;52.382;9.752;2022-09-09T16:36:51;4.27;;;2.10;;
9467;SDS011;4772;52.382;9.752;2022-09-09T16:39:18;2.37;;;1.47;;
9467;SDS011;4772;52.382;9.752;2022-09-09T16:41:45;3.83;;;1.80;;
9467;SDS011;4772;52.382;9.752;2022-09-09T16:44:13;2.80;;;1.80;;
9467;SDS011;4772;52.382;9.752;2022-09-09T16:46:41;6.10;;;2.03;;
9467;SDS011;4772;52.382;9.752;2022-09-09T16:49:08;4.57;;;1.70;;
9467;SDS011;4772;52.382;9.752;2022-09-09T16:51:52;4.90;;;1.60;;
9467;SDS011;4772;52.382;9.752;2022-09-09T16:54:19;4.00;;;1.53;;
9467;SDS011;4772;52.382;9.752;2022-09-09T16:56:46;4.47;;;1.77;;
9467;SDS011;4772;52.382;9.752;2022-09-09T16:59:16;6.73;;;2.10;;
9467;SDS011;4772;52.382;9.752;2022-09-09T17:01:43;4.13;;;1.97;;
9467;SDS011;4772;52.382;9.752;2022-09-09T17:04:10;10.63;;;1.93;;
9467;SDS011;4772;52.382;9.752;2022-09-09T17:06:38;6.47;;;2.53;;
9467;SDS011;4772;52.382;9.752;2022-09-09T17:09:08;5.73;;;2.03;;
9467;SDS011;4772;52.382;9.752;2022-09-09T17:11:35;4.27;;;1.87;;
9467;SDS011;4772;52.382;9.752;2022-09-09T17:14:01;9.37;;;2.10;;
9467;SDS011;4772;52.382;9.752;2022-09-09T17:16:29;5.43;;;2.00;;
9467;SDS011;4772;52.382;9.752;2022-09-09T17:18:56;3.70;;;2.00;;
9467;SDS011;4772;52.382;9.752;2022-09-09T17:21:24;5.00;;;2.33;;
9467;SDS011;4772;52.382;9.752;2022-09-09T17:23:50;4.43;;;2.17;;
9467;SDS011;4772;52.382;9.752;2022-09-09T17:26:18;3.83;;;1.93;;
9467;SDS011;4772;52.382;9.752;2022-09-09T17:28:44;4.50;;;2.60;;
9467;SDS011;4772;52.382;9.752;2022-09-09T17:31:12;8.50;;;2.80;;